createdAt,value
2018-11-03T00:02:02.023Z,7.80
2018-11-03T00:04:33.539Z,10.33
2018-11-03T00:07:04.767Z,9.00
2018-11-03T00:09:35.930Z,7.67
2018-11-03T00:12:07.227Z,8.27
2018-11-03T00:14:38.302Z,9.13
2018-11-03T00:17:09.548Z,7.80
2018-11-03T00:19:40.893Z,8.00
2018-11-03T00:22:11.883Z,9.17
2018-11-03T00:24:43.075Z,12.00
2018-11-03T00:27:14.080Z,10.53
2018-11-03T00:29:45.247Z,8.40
2018-11-03T00:32:16.456Z,10.83
2018-11-03T00:34:48.338Z,9.83
2018-11-03T00:37:19.654Z,9.23
2018-11-03T00:39:51.134Z,8.93
2018-11-03T00:42:22.399Z,9.20
2018-11-03T00:44:53.595Z,8.63
2018-11-03T00:47:25.084Z,8.03
2018-11-03T00:49:56.872Z,9.30
2018-11-03T00:52:28.156Z,10.50
2018-11-03T00:54:59.579Z,8.63
2018-11-03T00:57:30.967Z,9.27
2018-11-03T01:00:02.138Z,8.47
2018-11-03T01:02:33.331Z,9.43
2018-11-03T01:05:04.591Z,8.23
2018-11-03T01:07:36.387Z,9.27
2018-11-03T01:10:07.463Z,10.27
2018-11-03T01:12:39.356Z,10.17
2018-11-03T01:15:16.170Z,10.00
2018-11-03T01:17:47.646Z,9.43
2018-11-03T01:20:18.976Z,8.50
2018-11-03T01:22:49.944Z,8.63
2018-11-03T01:25:21.136Z,11.43
2018-11-03T01:27:52.310Z,9.23
2018-11-03T01:30:26.755Z,9.27
2018-11-03T01:32:58.037Z,9.37
2018-11-03T01:35:29.231Z,8.27
2018-11-03T01:38:00.292Z,11.07
2018-11-03T01:40:31.446Z,11.77
2018-11-03T01:43:02.611Z,8.60
2018-11-03T01:45:33.822Z,10.23
2018-11-03T01:48:04.830Z,10.30
2018-11-03T01:50:36.028Z,9.63
2018-11-03T01:53:07.317Z,11.10
2018-11-03T01:55:39.269Z,11.00
2018-11-03T01:58:10.606Z,11.10
2018-11-03T02:00:41.553Z,9.53
2018-11-03T02:03:12.739Z,12.37
2018-11-03T02:05:43.978Z,10.00
2018-11-03T02:08:15.422Z,10.77
2018-11-03T02:10:46.698Z,9.20
2018-11-03T02:13:17.902Z,10.10
2018-11-03T02:15:49.095Z,10.80
2018-11-03T02:18:20.271Z,11.20
2018-11-03T02:20:51.439Z,11.03
2018-11-03T02:23:22.675Z,10.43
2018-11-03T02:25:53.874Z,10.43
2018-11-03T02:28:25.039Z,10.87
2018-11-03T02:30:56.540Z,9.93
2018-11-03T02:33:27.827Z,9.10
2018-11-03T02:35:58.826Z,10.83
2018-11-03T02:38:30.491Z,11.80
2018-11-03T02:41:01.809Z,10.47
2018-11-03T02:43:32.985Z,10.33
2018-11-03T02:46:04.456Z,10.43
2018-11-03T02:48:35.783Z,11.23
2018-11-03T02:51:06.951Z,10.80
2018-11-03T02:53:38.032Z,10.43
2018-11-03T02:56:09.374Z,11.53
2018-11-03T02:58:40.576Z,9.97
2018-11-03T03:01:11.547Z,11.17
2018-11-03T03:03:42.847Z,10.17
2018-11-03T03:06:14.107Z,7.67
2018-11-03T03:08:45.355Z,7.87
2018-11-03T03:11:16.480Z,7.87
2018-11-03T03:13:48.135Z,8.03
2018-11-03T03:16:19.486Z,7.77
2018-11-03T03:18:50.950Z,9.97
2018-11-03T03:21:22.054Z,7.50
2018-11-03T03:23:53.250Z,8.97
2018-11-03T03:26:24.440Z,12.27
2018-11-03T03:28:55.925Z,9.13
2018-11-03T03:31:27.223Z,12.10
2018-11-03T03:33:58.420Z,9.27
2018-11-03T03:36:29.405Z,10.93
2018-11-03T03:39:00.927Z,11.57
2018-11-03T03:41:32.225Z,12.57
2018-11-03T03:44:03.438Z,9.57
2018-11-03T03:46:35.306Z,10.83
2018-11-03T03:49:06.652Z,11.40
2018-11-03T03:51:38.241Z,10.83
2018-11-03T03:54:09.522Z,11.03
2018-11-03T03:56:41.059Z,11.00
2018-11-03T03:59:12.587Z,10.70
2018-11-03T04:01:44.642Z,11.30
2018-11-03T04:04:15.706Z,11.37
2018-11-03T04:06:47.401Z,10.07
2018-11-03T04:09:18.940Z,10.13
2018-11-03T04:11:50.260Z,11.53
2018-11-03T04:14:21.263Z,12.00
2018-11-03T04:16:52.822Z,9.40
2018-11-03T04:19:23.779Z,10.40
2018-11-03T04:21:55.567Z,12.77
2018-11-03T04:24:27.367Z,12.00
2018-11-03T04:26:58.581Z,10.53
2018-11-03T04:29:29.738Z,12.67
2018-11-03T04:32:00.956Z,13.63
2018-11-03T04:34:31.922Z,11.27
2018-11-03T04:37:03.130Z,9.20
2018-11-03T04:39:34.144Z,11.53
2018-11-03T04:42:05.355Z,9.97
2018-11-03T04:44:37.000Z,9.97
2018-11-03T04:47:08.867Z,9.70
2018-11-03T04:49:40.194Z,12.57
2018-11-03T04:52:11.490Z,11.03
2018-11-03T04:54:42.843Z,13.00
2018-11-03T04:57:14.541Z,12.07
2018-11-03T04:59:45.693Z,10.93
2018-11-03T05:02:17.025Z,13.87
2018-11-03T05:04:48.202Z,16.00
2018-11-03T05:07:19.391Z,11.77
2018-11-03T05:09:50.633Z,14.87
2018-11-03T05:12:21.581Z,12.90
2018-11-03T05:14:53.606Z,16.20
2018-11-03T05:17:25.175Z,14.40
2018-11-03T05:19:56.349Z,13.17
2018-11-03T05:22:27.529Z,13.80
2018-11-03T05:24:59.023Z,15.53
2018-11-03T05:27:30.315Z,16.70
2018-11-03T05:30:01.809Z,14.03
2018-11-03T05:32:33.083Z,13.10
2018-11-03T05:35:04.400Z,15.67
2018-11-03T05:37:35.669Z,13.73
2018-11-03T05:40:06.964Z,15.60
2018-11-03T05:42:38.056Z,14.50
2018-11-03T05:45:10.077Z,16.43
2018-11-03T05:47:41.493Z,19.57
2018-11-03T05:50:12.672Z,20.63
2018-11-03T05:52:43.995Z,22.90
2018-11-03T05:55:15.181Z,20.27
2018-11-03T05:57:46.383Z,21.67
2018-11-03T06:00:17.394Z,26.13
2018-11-03T06:02:48.893Z,27.67
2018-11-03T06:05:20.166Z,22.83
2018-11-03T06:07:51.157Z,23.13
2018-11-03T06:10:22.331Z,23.53
2018-11-03T06:12:53.341Z,22.57
2018-11-03T06:15:24.622Z,19.13
2018-11-03T06:17:55.537Z,21.50
2018-11-03T06:20:27.549Z,20.93
2018-11-03T06:22:59.071Z,18.20
2018-11-03T06:25:30.289Z,21.07
2018-11-03T06:28:01.713Z,18.53
2018-11-03T06:30:33.366Z,18.97
2018-11-03T06:33:04.649Z,20.60
2018-11-03T06:35:35.847Z,19.23
2018-11-03T06:38:07.018Z,21.10
2018-11-03T06:40:38.031Z,20.63
2018-11-03T06:43:09.715Z,18.70
2018-11-03T06:45:40.846Z,19.07
2018-11-03T06:48:11.986Z,22.17
2018-11-03T06:50:43.183Z,25.43
2018-11-03T06:53:14.206Z,23.50
2018-11-03T06:55:45.212Z,23.60
2018-11-03T06:58:16.212Z,23.93
2018-11-03T07:00:47.391Z,25.23
2018-11-03T07:03:18.570Z,23.57
2018-11-03T07:05:49.559Z,22.73
2018-11-03T07:08:20.743Z,23.50
2018-11-03T07:10:51.948Z,27.27
2018-11-03T07:13:23.567Z,26.83
2018-11-03T07:15:54.720Z,25.23
2018-11-03T07:18:25.903Z,26.47
2018-11-03T07:20:57.091Z,28.60
2018-11-03T07:23:28.240Z,25.07
2018-11-03T07:25:59.309Z,22.77
2018-11-03T07:28:30.533Z,20.23
2018-11-03T07:31:01.754Z,24.80
2018-11-03T07:33:33.051Z,25.33
2018-11-03T07:36:04.326Z,25.30
2018-11-03T07:38:35.434Z,24.70
2018-11-03T07:41:07.016Z,25.63
2018-11-03T07:43:38.515Z,24.23
2018-11-03T07:46:10.109Z,19.43
2018-11-03T07:48:41.290Z,20.10
2018-11-03T07:51:12.574Z,23.27
2018-11-03T07:53:43.882Z,21.03
2018-11-03T07:56:14.987Z,23.20
2018-11-03T07:58:46.355Z,23.17
2018-11-03T08:01:17.547Z,20.17
2018-11-03T08:03:48.734Z,19.50
2018-11-03T08:06:20.139Z,21.13
2018-11-03T08:08:51.379Z,19.77
2018-11-03T08:11:22.349Z,21.23
2018-11-03T08:13:53.581Z,20.17
2018-11-03T08:16:24.709Z,24.73
2018-11-03T08:18:55.946Z,21.77
2018-11-03T08:21:27.284Z,20.80
2018-11-03T08:23:58.899Z,22.97
2018-11-03T08:26:30.888Z,23.23
2018-11-03T08:29:02.744Z,17.93
2018-11-03T08:31:33.870Z,20.77
2018-11-03T08:34:05.047Z,21.77
2018-11-03T08:36:35.996Z,19.17
2018-11-03T08:39:09.220Z,18.70
2018-11-03T08:41:40.590Z,20.17
2018-11-03T08:44:11.709Z,18.30
2018-11-03T08:46:42.733Z,16.33
2018-11-03T08:49:13.938Z,17.53
2018-11-03T08:51:44.918Z,16.13
2018-11-03T08:54:16.167Z,18.70
2018-11-03T08:56:47.323Z,16.77
2018-11-03T08:59:18.519Z,16.47
2018-11-03T09:01:49.832Z,18.47
2018-11-03T09:04:21.092Z,17.77
2018-11-03T09:06:52.311Z,16.47
2018-11-03T09:09:23.490Z,16.40
2018-11-03T09:11:54.993Z,18.20
2018-11-03T09:14:26.041Z,17.30
2018-11-03T09:16:57.260Z,16.43
2018-11-03T09:19:28.446Z,19.53
2018-11-03T09:21:59.829Z,19.63
2018-11-03T09:24:31.059Z,15.73
2018-11-03T09:27:02.213Z,15.87
2018-11-03T09:29:33.206Z,17.67
2018-11-03T09:32:04.581Z,16.57
2018-11-03T09:34:35.845Z,17.23
2018-11-03T09:37:07.775Z,18.27
2018-11-03T09:39:38.946Z,17.47
2018-11-03T09:42:09.951Z,15.30
2018-11-03T09:44:41.449Z,17.73
2018-11-03T09:47:12.504Z,12.87
2018-11-03T09:49:44.024Z,13.27
2018-11-03T09:52:15.303Z,11.27
2018-11-03T09:54:46.339Z,13.37
2018-11-03T09:57:17.505Z,18.27
2018-11-03T09:59:48.724Z,15.23
2018-11-03T10:02:19.867Z,14.70
2018-11-03T10:04:51.376Z,12.10
2018-11-03T10:07:22.692Z,11.77
2018-11-03T10:09:54.190Z,11.73
2018-11-03T10:12:25.439Z,11.20
2018-11-03T10:14:56.631Z,11.33
2018-11-03T10:17:28.115Z,10.97
2018-11-03T10:19:59.420Z,10.67
2018-11-03T10:22:31.447Z,12.30
2018-11-03T10:25:02.878Z,12.50
2018-11-03T10:27:34.151Z,12.03
2018-11-03T10:30:05.440Z,11.90
2018-11-03T10:32:37.592Z,11.83
2018-11-03T10:35:09.511Z,13.13
2018-11-03T10:37:41.299Z,11.57
2018-11-03T10:40:14.914Z,12.40
2018-11-03T10:42:46.511Z,10.37
2018-11-03T10:45:17.921Z,11.73
2018-11-03T10:47:49.478Z,10.37
2018-11-03T10:50:20.788Z,12.23
2018-11-03T10:52:51.767Z,10.07
2018-11-03T10:55:22.819Z,10.07
2018-11-03T10:57:53.995Z,9.33
2018-11-03T11:00:29.889Z,9.43
2018-11-03T11:03:06.285Z,9.13
2018-11-03T11:05:44.810Z,8.87
2018-11-03T11:08:20.893Z,8.73
2018-11-03T11:10:57.077Z,8.40
2018-11-03T11:13:29.615Z,8.90
2018-11-03T11:16:01.341Z,9.10
2018-11-03T11:18:32.712Z,7.27
2018-11-03T11:21:04.023Z,9.07
2018-11-03T11:23:35.290Z,7.10
2018-11-03T11:26:06.521Z,7.00
2018-11-03T11:28:37.587Z,6.90
2018-11-03T11:31:08.816Z,6.63
2018-11-03T11:33:39.944Z,8.13
2018-11-03T11:36:11.207Z,6.67
2018-11-03T11:38:42.587Z,7.67
2018-11-03T11:41:13.757Z,7.47
2018-11-03T11:43:44.781Z,6.10
2018-11-03T11:46:16.114Z,7.13
2018-11-03T11:48:47.312Z,7.07
2018-11-03T11:51:18.786Z,7.53
2018-11-03T11:53:50.580Z,6.40
2018-11-03T11:56:22.560Z,7.07
2018-11-03T11:58:53.850Z,6.20
2018-11-03T12:01:25.033Z,6.93
2018-11-03T12:03:56.051Z,7.23
2018-11-03T12:06:27.014Z,6.80
2018-11-03T12:08:58.213Z,5.80
2018-11-03T12:11:29.455Z,6.20
2018-11-03T12:14:00.608Z,6.27
2018-11-03T12:16:31.796Z,6.33
2018-11-03T12:19:03.023Z,6.07
2018-11-03T12:21:34.172Z,5.80
2018-11-03T12:24:05.876Z,8.00
2018-11-03T12:26:37.156Z,9.73
2018-11-03T12:29:08.738Z,8.40
2018-11-03T12:31:39.925Z,6.97
2018-11-03T12:34:11.129Z,7.07
2018-11-03T12:36:42.107Z,7.97
2018-11-03T12:39:13.360Z,7.03
2018-11-03T12:41:44.602Z,7.10
2018-11-03T12:44:15.694Z,6.77
2018-11-03T12:46:46.872Z,6.50
2018-11-03T12:49:18.215Z,6.53
2018-11-03T12:51:49.326Z,7.93
2018-11-03T12:54:20.651Z,6.63
2018-11-03T12:56:52.437Z,9.43
2018-11-03T12:59:23.720Z,7.93
2018-11-03T13:01:55.091Z,6.37
2018-11-03T13:04:26.402Z,6.83
2018-11-03T13:06:58.065Z,6.20
2018-11-03T13:09:29.189Z,7.30
2018-11-03T13:12:00.880Z,6.43
2018-11-03T13:14:31.954Z,7.07
2018-11-03T13:17:03.240Z,8.80
2018-11-03T13:19:35.232Z,6.57
2018-11-03T13:22:06.565Z,6.70
2018-11-03T13:24:38.030Z,7.43
2018-11-03T13:27:09.345Z,6.30
2018-11-03T13:29:40.475Z,6.30
2018-11-03T13:32:11.498Z,6.63
2018-11-03T13:34:42.508Z,7.13
2018-11-03T13:37:13.745Z,6.40
2018-11-03T13:39:45.586Z,12.80
2018-11-03T13:42:17.000Z,16.37
2018-11-03T13:44:48.537Z,8.90
2018-11-03T13:47:19.916Z,8.73
2018-11-03T13:49:51.055Z,10.83
2018-11-03T13:52:22.870Z,7.67
2018-11-03T13:54:54.034Z,7.97
2018-11-03T13:57:25.171Z,8.53
2018-11-03T13:59:56.371Z,7.80
2018-11-03T14:02:27.609Z,7.93
2018-11-03T14:04:58.928Z,8.03
2018-11-03T14:07:30.464Z,9.70
2018-11-03T14:10:02.033Z,8.10
2018-11-03T14:12:33.466Z,8.07
2018-11-03T14:15:05.006Z,8.63
2018-11-03T14:17:36.975Z,10.43
2018-11-03T14:20:10.158Z,10.23
2018-11-03T14:22:42.250Z,9.53
2018-11-03T14:25:14.407Z,8.10
2018-11-03T14:27:46.563Z,8.07
2018-11-03T14:30:17.752Z,9.17
2018-11-03T14:32:48.786Z,8.80
2018-11-03T14:35:19.939Z,9.17
2018-11-03T14:37:50.931Z,7.80
2018-11-03T14:40:21.931Z,8.20
2018-11-03T14:42:53.410Z,8.67
2018-11-03T14:45:24.806Z,9.97
2018-11-03T14:47:56.088Z,8.50
2018-11-03T14:50:32.688Z,8.57
2018-11-03T14:53:04.015Z,10.27
2018-11-03T14:55:35.172Z,10.60
2018-11-03T14:58:06.436Z,9.90
2018-11-03T15:00:38.657Z,9.07
2018-11-03T15:03:10.047Z,9.30
2018-11-03T15:05:41.128Z,9.23
2018-11-03T15:08:12.319Z,10.17
2018-11-03T15:10:43.518Z,11.70
2018-11-03T15:13:14.807Z,10.53
2018-11-03T15:15:46.091Z,15.70
2018-11-03T15:18:18.051Z,9.40
2018-11-03T15:20:49.316Z,29.07
2018-11-03T15:23:20.456Z,37.17
2018-11-03T15:25:51.648Z,24.57
2018-11-03T15:28:22.826Z,42.33
2018-11-03T15:30:54.017Z,37.30
2018-11-03T15:33:25.017Z,79.67
2018-11-03T15:35:56.331Z,23.33
2018-11-03T15:38:27.590Z,11.93
2018-11-03T15:40:58.795Z,10.97
2018-11-03T15:43:29.847Z,14.70
2018-11-03T15:46:01.192Z,11.50
2018-11-03T15:48:32.385Z,12.03
2018-11-03T15:51:03.590Z,13.13
2018-11-03T15:53:34.763Z,11.53
2018-11-03T15:56:06.191Z,10.80
2018-11-03T15:58:37.143Z,11.03
2018-11-03T16:01:08.144Z,11.20
2018-11-03T16:03:39.331Z,10.33
2018-11-03T16:06:10.527Z,10.83
2018-11-03T16:08:41.712Z,12.70
2018-11-03T16:11:12.908Z,13.87
2018-11-03T16:13:44.525Z,13.57
2018-11-03T16:16:16.077Z,13.53
2018-11-03T16:18:47.067Z,15.23
2018-11-03T16:21:18.261Z,12.80
2018-11-03T16:23:49.447Z,12.13
2018-11-03T16:26:20.647Z,14.87
2018-11-03T16:28:52.124Z,12.90
2018-11-03T16:31:23.426Z,12.40
2018-11-03T16:33:54.787Z,12.03
2018-11-03T16:36:25.823Z,13.93
2018-11-03T16:38:56.991Z,13.27
2018-11-03T16:41:28.426Z,12.03
2018-11-03T16:43:59.420Z,12.10
2018-11-03T16:46:30.591Z,14.90
2018-11-03T16:49:01.759Z,15.33
2018-11-03T16:51:32.966Z,15.60
2018-11-03T16:54:04.160Z,16.63
2018-11-03T16:56:35.653Z,18.80
2018-11-03T16:59:07.321Z,24.07
2018-11-03T17:01:38.502Z,24.07
2018-11-03T17:04:09.576Z,25.77
2018-11-03T17:06:40.952Z,26.03
2018-11-03T17:09:11.907Z,29.17
2018-11-03T17:11:43.072Z,21.33
2018-11-03T17:19:03.900Z,17.23
2018-11-03T17:21:35.066Z,20.63
2018-11-03T17:24:06.959Z,26.13
2018-11-03T17:26:38.251Z,26.90
2018-11-03T17:29:09.440Z,25.37
2018-11-03T17:31:40.420Z,22.10
2018-11-03T17:34:11.611Z,21.53
2018-11-03T17:36:42.799Z,20.57
2018-11-03T17:39:13.991Z,22.60
2018-11-03T17:41:45.286Z,21.03
2018-11-03T17:44:16.714Z,23.43
2018-11-03T17:46:48.272Z,21.43
2018-11-03T17:49:19.612Z,21.47
2018-11-03T17:51:50.664Z,21.93
2018-11-03T17:54:21.767Z,19.97
2018-11-03T17:56:52.946Z,19.67
2018-11-03T17:59:24.124Z,22.77
2018-11-03T18:01:55.531Z,22.10
2018-11-03T18:04:26.895Z,20.37
2018-11-03T18:06:57.906Z,22.87
2018-11-03T18:09:29.282Z,20.57
2018-11-03T18:12:00.481Z,21.67
2018-11-03T18:14:31.541Z,22.23
2018-11-03T18:17:02.684Z,22.43
2018-11-03T18:19:33.868Z,24.17
2018-11-03T18:22:05.135Z,25.97
2018-11-03T18:24:36.279Z,27.03
2018-11-03T18:27:07.703Z,22.70
2018-11-03T18:29:39.020Z,23.57
2018-11-03T18:32:10.257Z,24.57
2018-11-03T18:34:41.275Z,24.07
2018-11-03T18:37:12.419Z,28.00
2018-11-03T18:39:43.579Z,28.83
2018-11-03T18:42:14.657Z,31.37
2018-11-03T18:44:45.988Z,32.43
2018-11-03T18:47:17.414Z,31.47
2018-11-03T18:49:48.562Z,31.97
2018-11-03T18:52:19.756Z,31.23
2018-11-03T18:54:50.959Z,30.97
2018-11-03T18:57:22.152Z,29.00
2018-11-03T18:59:53.150Z,30.27
2018-11-03T19:02:24.641Z,30.03
2018-11-03T19:04:55.715Z,32.50
2018-11-03T19:07:26.954Z,43.70
2018-11-03T19:09:58.127Z,47.63
2018-11-03T19:12:30.171Z,46.27
2018-11-03T19:15:01.517Z,83.03
2018-11-03T19:17:32.656Z,84.70
2018-11-03T19:20:04.148Z,92.80
2018-11-03T19:22:35.494Z,154.27
2018-11-03T19:25:07.951Z,137.97
2018-11-03T19:27:39.325Z,73.53
2018-11-03T19:30:12.385Z,50.00
2018-11-03T19:32:44.743Z,50.87
2018-11-03T19:35:15.739Z,47.80
2018-11-03T19:37:46.710Z,53.80
2018-11-03T19:40:17.907Z,53.43
2018-11-03T19:42:48.944Z,49.50
2018-11-03T19:45:20.150Z,55.13
2018-11-03T19:47:51.303Z,43.90
2018-11-03T19:50:22.463Z,44.57
2018-11-03T19:52:53.475Z,44.90
2018-11-03T19:55:24.755Z,43.33
2018-11-03T19:57:56.347Z,43.63
2018-11-03T20:00:27.738Z,44.33
2018-11-03T20:02:58.855Z,44.10
2018-11-03T20:05:30.011Z,41.73
2018-11-03T20:08:01.250Z,40.17
2018-11-03T20:10:32.392Z,37.23
2018-11-03T20:13:03.767Z,39.57
2018-11-03T20:15:35.871Z,40.37
2018-11-03T20:18:06.993Z,45.40
2018-11-03T20:20:38.311Z,44.10
2018-11-03T20:23:09.546Z,49.70
2018-11-03T20:25:40.735Z,53.60
2018-11-03T20:28:11.924Z,51.37
2018-11-03T20:30:42.925Z,49.87
2018-11-03T20:33:14.135Z,46.50
2018-11-03T20:35:45.124Z,50.43
2018-11-03T20:38:16.308Z,47.87
2018-11-03T20:40:47.511Z,49.53
2018-11-03T20:43:18.861Z,50.77
2018-11-03T20:45:50.075Z,58.23
2018-11-03T20:48:21.079Z,60.80
2018-11-03T20:50:57.346Z,53.87
2018-11-03T20:53:28.610Z,55.80
2018-11-03T20:55:59.582Z,49.67
2018-11-03T20:58:30.744Z,51.67
2018-11-03T21:01:01.769Z,56.37
2018-11-03T21:03:32.970Z,66.20
2018-11-03T21:06:04.160Z,74.10
2018-11-03T21:08:35.351Z,69.67
2018-11-03T21:11:06.484Z,71.47
2018-11-03T21:13:37.881Z,71.47
2018-11-03T21:16:08.919Z,98.20
2018-11-03T21:18:40.140Z,88.73
2018-11-03T21:21:11.279Z,92.43
2018-11-03T21:23:42.376Z,106.27
2018-11-03T21:26:13.492Z,83.80
2018-11-03T21:28:44.671Z,73.63
2018-11-03T21:31:16.150Z,71.77
2018-11-03T21:33:47.256Z,65.67
2018-11-03T21:36:18.435Z,61.43
2018-11-03T21:38:49.497Z,60.97
2018-11-03T21:41:20.665Z,59.10
2018-11-03T21:43:51.674Z,58.67
2018-11-03T21:46:22.839Z,61.27
2018-11-03T21:48:53.811Z,58.50
2018-11-03T21:51:24.799Z,57.87
2018-11-03T21:53:55.983Z,56.20
2018-11-03T21:56:27.379Z,56.50
2018-11-03T21:58:58.375Z,56.13
2018-11-03T22:01:29.943Z,55.17
2018-11-03T22:04:00.948Z,57.83
2018-11-03T22:06:33.037Z,58.67
2018-11-03T22:09:05.728Z,54.80
2018-11-03T22:11:36.874Z,56.63
2018-11-03T22:14:08.223Z,56.30
2018-11-03T22:16:39.284Z,54.70
2018-11-03T22:19:10.476Z,56.30
2018-11-03T22:21:41.512Z,55.13
2018-11-03T22:24:12.902Z,55.83
2018-11-03T22:26:44.128Z,57.00
2018-11-03T22:29:15.222Z,56.03
2018-11-03T22:31:47.262Z,64.80
2018-11-03T22:34:18.405Z,66.77
2018-11-03T22:36:49.411Z,74.23
2018-11-03T22:39:21.034Z,75.70
2018-11-03T22:41:52.282Z,69.87
2018-11-03T22:44:23.562Z,72.50
2018-11-03T22:46:54.788Z,70.43
2018-11-03T22:49:25.960Z,64.03
2018-11-03T22:51:57.250Z,59.63
2018-11-03T22:54:28.524Z,58.20
2018-11-03T22:57:00.058Z,64.93
2018-11-03T22:59:31.656Z,58.57
2018-11-03T23:02:02.758Z,55.63
2018-11-03T23:04:34.140Z,51.50
2018-11-03T23:07:05.165Z,50.70
2018-11-03T23:09:36.492Z,47.87
2018-11-03T23:12:07.515Z,55.20
2018-11-03T23:14:38.467Z,57.43
2018-11-03T23:17:09.663Z,61.97
2018-11-03T23:19:41.056Z,65.50
2018-11-03T23:22:12.315Z,70.17
2018-11-03T23:24:43.429Z,80.70
2018-11-03T23:27:14.665Z,77.60
2018-11-03T23:29:46.014Z,93.80
2018-11-03T23:32:17.194Z,174.67
2018-11-03T23:34:48.411Z,219.77
2018-11-03T23:37:19.596Z,151.03
2018-11-03T23:39:51.074Z,108.70
2018-11-03T23:42:22.158Z,71.00
2018-11-03T23:44:53.384Z,58.53
2018-11-03T23:47:24.583Z,53.20
2018-11-03T23:49:55.753Z,50.43
2018-11-03T23:52:31.883Z,48.80
2018-11-03T23:55:04.957Z,40.93
2018-11-03T23:57:36.320Z,42.50
